Time;durP1;ratioP1;P1;durP2;ratioP2;P2;SDS_P1;SDS_P2;PMS_P1;PMS_P2;Temp;Humidity;BMP_temperature;BMP_pressure;BME280_temperature;BME280_humidity;BME280_pressure;Samples;Min_cycle;Max_cycle;Signal;HPM_P1;HPM_P2
2022/03/21 00:00:54;;;;;;;12.18;2.35;;;11.30;99.90;;;;;;5092905;28;20050;-76
2022/03/21 00:03:24;;;;;;;8.82;2.22;;;11.30;99.90;;;;;;5092582;28;20554;-77
2022/03/21 00:05:50;;;;;;;10.07;3.40;;;11.20;99.90;;;;;;5092790;28;20028;-76
2022/03/21 00:08:17;;;;;;;7.22;2.50;;;11.30;99.90;;;;;;5092932;28;20027;-76
2022/03/21 00:10:44;;;;;;;7.00;2.38;;;11.30;99.90;;;;;;5091131;28;20496;-76
2022/03/21 00:13:14;;;;;;;13.25;3.00;;;11.30;99.90;;;;;;5094104;28;20490;-76
2022/03/21 00:15:40;;;;;;;13.18;3.00;;;11.30;99.90;;;;;;5096817;28;20016;-76
2022/03/21 00:18:06;;;;;;;12.23;3.60;;;11.30;99.90;;;;;;5096719;28;20027;-77
2022/03/21 00:20:33;;;;;;;9.70;2.28;;;11.20;99.90;;;;;;5096114;28;20046;-77
2022/03/21 00:22:59;;;;;;;7.85;2.10;;;11.20;99.90;;;;;;5096646;28;20077;-76
2022/03/21 00:25:25;;;;;;;12.60;2.80;;;11.20;99.90;;;;;;5096209;28;20039;-76
2022/03/21 00:27:50;;;;;;;12.10;3.58;;;11.20;99.90;;;;;;5096222;28;20039;-76
2022/03/21 00:30:17;;;;;;;14.70;2.30;;;11.20;99.90;;;;;;5096664;28;20035;-77
2022/03/21 00:32:43;;;;;;;10.82;2.50;;;11.20;99.90;;;;;;5096474;28;20024;-76
2022/03/21 00:35:12;;;;;;;7.93;1.80;;;11.20;99.90;;;;;;5096077;28;20020;-77
2022/03/21 00:37:39;;;;;;;10.07;2.90;;;11.20;99.90;;;;;;5096463;28;20489;-76
2022/03/21 00:40:07;;;;;;;12.98;2.38;;;11.20;99.90;;;;;;5095937;28;20027;-76
2022/03/21 00:42:34;;;;;;;11.52;2.40;;;11.20;99.90;;;;;;5096085;28;20021;-76
2022/03/21 00:45:13;;;;;;;12.65;2.47;;;11.20;99.90;;;;;;5095937;28;20085;-76
2022/03/21 00:47:39;;;;;;;12.75;2.58;;;11.20;99.90;;;;;;5096116;28;20161;-76
2022/03/21 00:50:07;;;;;;;10.35;2.42;;;11.20;99.90;;;;;;5096177;28;20016;-76
2022/03/21 00:52:45;;;;;;;18.10;2.40;;;11.20;99.90;;;;;;5103155;28;20067;-76
2022/03/21 00:55:13;;;;;;;9.35;2.30;;;11.20;99.90;;;;;;5095994;28;20016;-76
2022/03/21 00:57:42;;;;;;;8.20;2.08;;;11.20;99.90;;;;;;5095949;28;20020;-77
2022/03/21 01:00:18;;;;;;;9.07;2.40;;;11.20;99.90;;;;;;5095972;28;20732;-77
2022/03/21 01:02:44;;;;;;;13.73;2.60;;;11.20;99.90;;;;;;5095979;28;20107;-76
2022/03/21 01:05:11;;;;;;;11.93;2.67;;;11.20;99.90;;;;;;5095764;28;20030;-77
2022/03/21 01:07:38;;;;;;;11.38;2.83;;;11.10;99.90;;;;;;5095478;28;20387;-76
2022/03/21 01:10:06;;;;;;;9.65;2.45;;;11.20;99.90;;;;;;5095687;28;20020;-76
2022/03/21 01:12:33;;;;;;;10.45;2.42;;;11.20;99.90;;;;;;5095388;28;20491;-77
2022/03/21 01:14:59;;;;;;;11.60;2.95;;;11.20;99.90;;;;;;5095721;28;20027;-76
2022/03/21 01:17:25;;;;;;;11.23;3.00;;;11.20;99.90;;;;;;5095326;28;20060;-77
2022/03/21 01:19:51;;;;;;;13.68;3.60;;;11.20;99.90;;;;;;5082192;28;20032;-76
2022/03/21 01:22:16;;;;;;;11.77;3.00;;;11.20;99.90;;;;;;5075141;28;20028;-76
2022/03/21 01:24:42;;;;;;;11.18;3.15;;;11.20;99.90;;;;;;5074879;28;20031;-77
2022/03/21 01:27:08;;;;;;;12.00;3.17;;;11.20;99.90;;;;;;5075328;28;20529;-77
2022/03/21 01:29:35;;;;;;;17.42;4.25;;;11.20;99.90;;;;;;5076624;28;20025;-77
2022/03/21 01:32:01;;;;;;;13.65;3.28;;;11.20;99.90;;;;;;5095260;28;20079;-76
2022/03/21 01:34:27;;;;;;;13.43;3.08;;;11.20;99.90;;;;;;5095329;28;20091;-76
2022/03/21 01:36:53;;;;;;;20.50;3.88;;;11.20;99.90;;;;;;5095154;28;20119;-77
2022/03/21 01:39:19;;;;;;;17.65;3.17;;;11.20;99.90;;;;;;5095078;28;20349;-76
2022/03/21 01:41:45;;;;;;;11.77;2.65;;;11.20;99.90;;;;;;5091488;28;20035;-76
2022/03/21 01:44:11;;;;;;;11.75;3.70;;;11.20;99.90;;;;;;5074766;28;20028;-76
2022/03/21 01:46:39;;;;;;;13.95;3.75;;;11.20;99.90;;;;;;5074376;28;20107;-76
2022/03/21 01:49:06;;;;;;;12.27;3.10;;;11.20;99.90;;;;;;5074547;28;20048;-76
2022/03/21 01:51:33;;;;;;;15.98;4.72;;;11.20;99.90;;;;;;5084254;28;20117;-76
2022/03/21 01:56:45;;;;;;;13.75;2.63;;;11.10;99.90;;;;;;5095211;28;20038;-76
2022/03/21 01:59:12;;;;;;;12.90;2.55;;;11.10;99.90;;;;;;5094751;28;20027;-76
2022/03/21 02:01:39;;;;;;;11.93;3.33;;;11.10;99.90;;;;;;5094841;28;20444;-77
2022/03/21 02:04:05;;;;;;;14.98;3.05;;;11.10;99.90;;;;;;5094929;28;20027;-76
2022/03/21 02:06:32;;;;;;;14.85;3.17;;;11.10;99.90;;;;;;5093985;28;20035;-76
2022/03/21 02:08:59;;;;;;;12.20;3.53;;;11.10;99.90;;;;;;5094828;28;20032;-76
2022/03/21 02:11:29;;;;;;;14.48;3.40;;;11.10;99.90;;;;;;5094676;28;20441;-76
2022/03/21 02:13:56;;;;;;;10.05;2.65;;;11.10;99.90;;;;;;5094649;28;20044;-77
2022/03/21 02:16:23;;;;;;;12.35;2.40;;;11.10;99.90;;;;;;5094645;28;20527;-76
2022/03/21 02:18:49;;;;;;;18.80;3.08;;;11.10;99.90;;;;;;5094143;28;20107;-76
2022/03/21 02:21:27;;;;;;;14.75;2.90;;;11.00;99.90;;;;;;5092712;28;20375;-76
2022/03/21 02:24:02;;;;;;;16.02;3.28;;;11.00;99.90;;;;;;5094327;28;20046;-76
2022/03/21 02:26:29;;;;;;;14.80;3.28;;;11.00;99.90;;;;;;5094388;28;20024;-76
2022/03/21 02:28:57;;;;;;;11.27;3.20;;;11.10;99.90;;;;;;5094095;28;20073;-76
2022/03/21 02:31:24;;;;;;;13.85;2.92;;;11.00;99.90;;;;;;5094386;28;20032;-76
2022/03/21 02:33:52;;;;;;;16.13;3.17;;;11.00;99.90;;;;;;5093849;28;20013;-76
2022/03/21 02:36:20;;;;;;;15.73;3.00;;;11.00;99.90;;;;;;5093284;28;20027;-76
2022/03/21 02:38:47;;;;;;;17.30;3.50;;;11.00;99.90;;;;;;5094232;28;20048;-77
2022/03/21 02:41:15;;;;;;;15.30;2.65;;;11.00;99.90;;;;;;5093915;28;20502;-76
2022/03/21 02:43:54;;;;;;;7.63;2.58;;;11.00;99.90;;;;;;5094132;28;20044;-76
2022/03/21 02:46:21;;;;;;;13.15;3.08;;;11.00;99.90;;;;;;5093521;28;20020;-76
2022/03/21 02:48:48;;;;;;;14.45;2.92;;;11.10;99.90;;;;;;5093463;28;20104;-76
2022/03/21 02:51:14;;;;;;;14.15;2.58;;;11.00;99.90;;;;;;5093644;28;20068;-77
2022/03/21 02:53:41;;;;;;;7.88;2.28;;;11.10;99.90;;;;;;5091839;28;20028;-76
2022/03/21 02:56:07;;;;;;;13.00;2.83;;;11.10;99.90;;;;;;5093487;28;20024;-76
2022/03/21 02:58:33;;;;;;;17.63;3.67;;;11.00;99.90;;;;;;5093756;28;20077;-76
2022/03/21 03:01:10;;;;;;;8.35;2.60;;;11.00;99.90;;;;;;5093499;28;20111;-76
2022/03/21 03:03:36;;;;;;;9.77;2.63;;;11.00;99.90;;;;;;5093430;28;20012;-76
2022/03/21 03:06:02;;;;;;;11.32;3.58;;;11.00;99.90;;;;;;5099970;28;20028;-76
2022/03/21 03:08:29;;;;;;;15.85;2.38;;;11.00;99.90;;;;;;5113405;28;20019;-77
2022/03/21 03:10:55;;;;;;;10.15;2.60;;;11.00;99.90;;;;;;5093259;28;20020;-77
2022/03/21 03:13:21;;;;;;;9.73;2.55;;;11.00;99.90;;;;;;5093649;28;20028;-77
2022/03/21 03:15:47;;;;;;;8.32;2.58;;;11.00;99.90;;;;;;5093261;28;20525;-76
2022/03/21 03:18:13;;;;;;;11.90;3.10;;;11.00;99.90;;;;;;5092840;28;20012;-76
2022/03/21 03:20:47;;;;;;;6.93;1.95;;;10.90;99.90;;;;;;5111764;28;20035;-76
2022/03/21 03:23:13;;;;;;;14.32;2.67;;;10.90;99.90;;;;;;5113564;28;20506;-76
2022/03/21 03:25:39;;;;;;;13.98;2.63;;;10.90;99.90;;;;;;5113532;28;20027;-76
2022/03/21 03:28:05;;;;;;;11.10;2.80;;;10.90;99.90;;;;;;5108858;28;20048;-76
2022/03/21 03:30:31;;;;;;;12.50;3.15;;;10.90;99.90;;;;;;5104945;28;20062;-77
2022/03/21 03:32:56;;;;;;;10.85;2.55;;;10.90;99.90;;;;;;5112984;28;20066;-76
2022/03/21 03:35:22;;;;;;;10.82;3.67;;;10.90;99.90;;;;;;5113487;28;20084;-77
2022/03/21 03:37:48;;;;;;;9.75;3.22;;;10.90;99.90;;;;;;5113129;28;20020;-76
2022/03/21 03:40:14;;;;;;;14.15;3.10;;;10.90;99.90;;;;;;5104291;28;20063;-77
2022/03/21 03:42:39;;;;;;;10.60;3.20;;;10.90;99.90;;;;;;5092606;28;20499;-76
2022/03/21 03:45:06;;;;;;;10.23;2.40;;;10.80;99.90;;;;;;5092822;28;20089;-76
2022/03/21 03:47:31;;;;;;;18.52;3.55;;;10.90;99.90;;;;;;5092469;28;20535;-76
2022/03/21 03:49:59;;;;;;;15.02;3.53;;;10.90;99.90;;;;;;5092676;28;20119;-76
2022/03/21 03:52:24;;;;;;;18.83;3.35;;;10.90;99.90;;;;;;5092562;28;20048;-77
2022/03/21 03:54:50;;;;;;;8.30;2.53;;;10.90;99.90;;;;;;5092527;28;20074;-76
2022/03/21 03:57:16;;;;;;;9.27;3.33;;;10.80;99.90;;;;;;5092695;28;20023;-76
2022/03/21 03:59:41;;;;;;;15.85;3.45;;;10.80;99.90;;;;;;5092287;28;20024;-77
2022/03/21 04:02:09;;;;;;;15.95;3.22;;;10.80;99.90;;;;;;5092507;28;20549;-76
2022/03/21 04:04:35;;;;;;;13.38;3.63;;;10.80;99.90;;;;;;5092850;28;20371;-76
2022/03/21 04:07:01;;;;;;;13.75;3.70;;;10.90;99.90;;;;;;5092506;28;20028;-76
2022/03/21 04:09:27;;;;;;;17.10;3.72;;;10.90;99.90;;;;;;5092783;28;20034;-76
2022/03/21 04:11:53;;;;;;;10.75;3.17;;;10.80;99.90;;;;;;5092069;28;20024;-76
2022/03/21 04:14:19;;;;;;;16.00;2.95;;;10.90;99.90;;;;;;5092776;28;20082;-76
2022/03/21 04:16:44;;;;;;;13.30;3.13;;;10.80;99.90;;;;;;5092035;28;20052;-76
2022/03/21 04:19:11;;;;;;;10.65;3.05;;;10.90;99.90;;;;;;5092631;28;20028;-76
2022/03/21 04:21:37;;;;;;;9.63;2.97;;;10.90;99.90;;;;;;5092662;28;20016;-76
2022/03/21 04:24:04;;;;;;;10.15;2.83;;;10.90;99.90;;;;;;5092307;28;20025;-76
2022/03/21 04:26:29;;;;;;;12.13;3.22;;;10.90;99.90;;;;;;5092513;28;20023;-76
2022/03/21 04:28:55;;;;;;;13.18;3.05;;;10.90;99.90;;;;;;5091105;28;20028;-77
2022/03/21 04:31:21;;;;;;;15.63;3.50;;;10.90;99.90;;;;;;5107540;28;20076;-76
2022/03/21 04:33:48;;;;;;;14.23;3.28;;;10.90;99.90;;;;;;5113014;28;20034;-76
2022/03/21 04:36:13;;;;;;;13.30;2.90;;;10.90;99.90;;;;;;5112833;28;20019;-77
2022/03/21 04:38:40;;;;;;;10.77;3.22;;;10.90;99.90;;;;;;5112681;28;20135;-77
2022/03/21 04:41:06;;;;;;;10.27;3.03;;;10.90;99.90;;;;;;5098468;28;20028;-76
2022/03/21 04:43:32;;;;;;;8.77;3.00;;;10.90;99.90;;;;;;5092069;28;20109;-76
2022/03/21 04:45:58;;;;;;;8.90;2.95;;;10.90;99.90;;;;;;5091953;28;20020;-76
2022/03/21 04:48:24;;;;;;;13.95;2.95;;;11.00;99.90;;;;;;5092366;28;20020;-76
2022/03/21 04:50:51;;;;;;;8.52;2.70;;;10.90;99.90;;;;;;5092065;28;20024;-76
2022/03/21 04:53:17;;;;;;;8.45;2.45;;;11.00;99.90;;;;;;5092176;28;20035;-77
2022/03/21 04:55:43;;;;;;;8.48;2.80;;;11.00;99.90;;;;;;5092332;28;20035;-76
2022/03/21 04:58:09;;;;;;;11.43;2.92;;;11.00;99.90;;;;;;5092168;28;20024;-76
2022/03/21 05:00:37;;;;;;;8.77;2.38;;;10.90;99.90;;;;;;5103627;28;20429;-76
2022/03/21 05:03:07;;;;;;;15.40;3.00;;;10.90;99.90;;;;;;5116332;28;20026;-76
2022/03/21 05:05:35;;;;;;;10.82;2.58;;;10.90;99.90;;;;;;5081246;28;20387;-76
2022/03/21 05:08:01;;;;;;;9.60;3.30;;;10.90;99.90;;;;;;5095611;28;20028;-76
2022/03/21 05:10:27;;;;;;;7.63;2.10;;;10.90;99.90;;;;;;5077616;28;20360;-76
2022/03/21 05:12:52;;;;;;;11.40;3.08;;;10.90;99.90;;;;;;5077530;28;20119;-77
2022/03/21 05:15:18;;;;;;;13.60;2.55;;;10.90;99.90;;;;;;5095279;28;20578;-80
2022/03/21 05:17:44;;;;;;;11.40;2.85;;;10.90;99.90;;;;;;5095466;28;20020;-77
2022/03/21 05:20:16;;;;;;;8.48;2.70;;;10.90;99.90;;;;;;5095601;28;20548;-77
2022/03/21 05:31:06;;;;;;;9.90;2.72;;;10.80;99.90;;;;;;5095099;28;20031;-76
2022/03/21 05:36:17;;;;;;;8.40;2.67;;;10.90;99.90;;;;;;5095467;28;20039;-76
2022/03/21 05:38:43;;;;;;;7.82;2.50;;;10.90;99.90;;;;;;5089531;28;20016;-76
2022/03/21 05:41:10;;;;;;;10.43;3.03;;;10.90;99.90;;;;;;5094151;28;20023;-76
2022/03/21 05:43:35;;;;;;;7.03;2.55;;;10.90;99.90;;;;;;5082596;28;20013;-76
2022/03/21 05:46:03;;;;;;;10.82;2.63;;;10.90;99.90;;;;;;5089414;28;20043;-76
2022/03/21 05:51:15;;;;;;;11.35;2.83;;;11.00;99.90;;;;;;5088161;28;20438;-76
2022/03/21 05:53:41;;;;;;;9.70;2.80;;;10.90;99.90;;;;;;5082364;28;20031;-76
2022/03/21 05:56:07;;;;;;;12.43;3.13;;;11.00;99.90;;;;;;5084486;28;20020;-75
2022/03/21 05:58:33;;;;;;;14.50;3.65;;;10.90;99.90;;;;;;5082276;28;20095;-76
2022/03/21 06:00:59;;;;;;;6.40;2.80;;;10.90;99.90;;;;;;5082093;28;20028;-76
2022/03/21 06:03:24;;;;;;;12.63;3.30;;;10.90;99.90;;;;;;5093385;28;20167;-77
2022/03/21 06:05:51;;;;;;;10.88;2.80;;;10.90;99.90;;;;;;5097871;28;20078;-76
2022/03/21 06:08:17;;;;;;;10.60;2.55;;;10.90;99.90;;;;;;5084552;28;20020;-76
2022/03/21 06:10:42;;;;;;;11.38;3.33;;;10.90;99.90;;;;;;5086729;28;20490;-76
2022/03/21 06:13:08;;;;;;;8.80;2.55;;;10.80;99.90;;;;;;5079673;28;20024;-76
2022/03/21 06:15:35;;;;;;;14.32;2.72;;;10.90;99.90;;;;;;5089799;28;20017;-76
2022/03/21 06:18:02;;;;;;;8.18;2.40;;;10.90;99.90;;;;;;5090723;28;20097;-76
2022/03/21 06:20:28;;;;;;;8.70;3.10;;;10.90;99.90;;;;;;5103092;28;20042;-76
2022/03/21 06:22:55;;;;;;;7.45;2.65;;;11.00;99.90;;;;;;5097384;28;20028;-76
2022/03/21 06:25:21;;;;;;;8.10;2.80;;;11.00;99.90;;;;;;5101817;28;20486;-77
2022/03/21 06:27:48;;;;;;;9.77;2.55;;;11.00;99.90;;;;;;5114603;28;20026;-76
2022/03/21 06:30:14;;;;;;;5.65;2.65;;;11.00;99.90;;;;;;5114228;28;20483;-76
2022/03/21 06:32:40;;;;;;;7.25;2.30;;;11.00;99.90;;;;;;5114369;28;20517;-78
2022/03/21 06:35:09;;;;;;;11.23;2.83;;;11.10;99.90;;;;;;5105258;28;20028;-76
2022/03/21 06:37:35;;;;;;;6.00;2.22;;;11.10;99.90;;;;;;5093922;28;20124;-76
2022/03/21 06:40:00;;;;;;;8.15;2.35;;;11.10;99.90;;;;;;5092750;28;20146;-76
2022/03/21 06:42:26;;;;;;;8.50;2.47;;;11.10;99.90;;;;;;5094948;28;20561;-76
2022/03/21 06:44:55;;;;;;;6.68;2.30;;;11.10;99.90;;;;;;5091901;28;20016;-76
2022/03/21 06:47:21;;;;;;;8.40;2.75;;;11.20;99.90;;;;;;5091107;28;20074;-76
2022/03/21 06:49:48;;;;;;;8.40;3.15;;;11.20;99.90;;;;;;5084564;28;20521;-76
2022/03/21 06:52:16;;;;;;;8.18;2.80;;;11.20;99.90;;;;;;5098082;28;20165;-76
2022/03/21 07:52:12;;;;;;;4.18;1.50;;;12.30;99.90;;;;;;6175945;22;20989;31
2022/03/21 07:54:39;;;;;;;3.42;1.40;;;12.40;99.90;;;;;;4990138;28;19949;-76
2022/03/21 07:57:05;;;;;;;3.67;1.52;;;12.50;99.90;;;;;;4980944;28;20034;-76
2022/03/21 07:59:31;;;;;;;5.95;1.63;;;12.60;99.90;;;;;;4992346;28;20036;-76
2022/03/21 08:01:58;;;;;;;4.75;1.45;;;12.60;99.90;;;;;;4993106;28;20073;-74
2022/03/21 08:04:24;;;;;;;3.55;1.63;;;12.60;99.90;;;;;;4993380;28;20019;-75
2022/03/21 08:06:50;;;;;;;4.68;1.60;;;12.70;99.90;;;;;;4993152;28;20019;-75
2022/03/21 08:09:15;;;;;;;6.78;1.73;;;12.80;99.90;;;;;;4975323;28;20404;-74
2022/03/21 08:11:41;;;;;;;3.20;1.50;;;13.00;99.90;;;;;;4991773;28;20030;-75
2022/03/21 08:14:07;;;;;;;6.03;1.70;;;13.10;99.90;;;;;;4993247;28;20022;-76
2022/03/21 08:16:33;;;;;;;4.13;1.27;;;13.20;99.90;;;;;;4992379;28;20026;-73
2022/03/21 08:18:58;;;;;;;5.28;1.40;;;13.20;99.90;;;;;;4993123;28;20050;-73
2022/03/21 08:21:24;;;;;;;2.50;1.17;;;13.30;99.90;;;;;;4992836;28;20390;-73
2022/03/21 08:23:50;;;;;;;6.55;1.95;;;13.30;99.90;;;;;;4992548;28;20073;-73
2022/03/21 08:26:19;;;;;;;11.35;1.73;;;13.60;99.90;;;;;;4993377;28;20026;-73
2022/03/21 08:28:45;;;;;;;4.93;1.45;;;13.60;99.90;;;;;;4992291;28;20031;-73
2022/03/21 09:14:41;;;;;;;9.02;0.98;;;14.50;99.90;;;;;;4965112;23;20295;-73
2022/03/21 09:17:07;;;;;;;2.78;1.05;;;14.50;99.90;;;;;;4975539;28;20027;-73
2022/03/21 09:19:32;;;;;;;3.55;0.98;;;13.90;99.90;;;;;;4972179;28;20027;-73
2022/03/21 09:21:59;;;;;;;3.90;0.90;;;13.70;99.90;;;;;;4976012;28;20033;-73
2022/03/21 09:24:28;;;;;;;4.35;1.10;;;14.00;99.90;;;;;;4971344;28;20030;-73
2022/03/21 09:26:54;;;;;;;1.95;0.95;;;14.80;99.90;;;;;;4971789;28;21494;-73
2022/03/21 09:29:20;;;;;;;3.55;1.25;;;14.50;99.90;;;;;;4971488;28;20170;-73
2022/03/21 09:31:47;;;;;;;3.78;1.30;;;14.60;99.90;;;;;;4967319;28;20035;-73
2022/03/21 09:34:13;;;;;;;4.45;1.50;;;14.80;99.90;;;;;;4968071;28;20078;-73
2022/03/21 09:36:40;;;;;;;3.22;1.20;;;15.10;99.90;;;;;;4973122;28;20026;-73
2022/03/21 09:39:07;;;;;;;2.95;1.10;;;15.00;99.90;;;;;;4975250;28;20493;-73
2022/03/21 09:41:33;;;;;;;3.60;1.30;;;14.80;99.90;;;;;;4972803;28;20026;-73
2022/03/21 09:44:01;;;;;;;3.97;1.38;;;14.80;99.90;;;;;;4971531;28;20041;-73
2022/03/21 09:46:27;;;;;;;2.88;1.40;;;15.20;99.90;;;;;;4971521;28;20042;-73
2022/03/21 09:48:55;;;;;;;4.63;1.65;;;15.50;99.90;;;;;;4968862;28;20031;-73
2022/03/21 09:51:22;;;;;;;6.90;1.65;;;14.80;99.90;;;;;;4971297;28;20054;-73
2022/03/21 09:53:48;;;;;;;6.95;1.48;;;15.30;99.90;;;;;;4974096;28;20031;-73
2022/03/21 09:56:16;;;;;;;6.38;1.45;;;15.20;99.90;;;;;;4965540;28;20028;-73
2022/03/21 09:58:43;;;;;;;4.65;1.50;;;15.30;99.90;;;;;;4974794;28;20534;-73
2022/03/21 10:01:11;;;;;;;3.80;1.70;;;15.10;99.90;;;;;;4972590;28;20041;-73
2022/03/21 10:03:38;;;;;;;8.10;1.95;;;15.40;99.90;;;;;;4973375;28;20027;-73
2022/03/21 10:06:33;;;;;;;7.22;1.95;;;15.30;99.90;;;;;;4973878;28;20023;-73
2022/03/21 10:09:13;;;;;;;7.10;1.73;;;15.60;99.90;;;;;;4961772;28;20581;-73
2022/03/21 10:11:53;;;;;;;7.40;2.70;;;15.60;99.90;;;;;;4960364;28;20039;-73
2022/03/21 10:14:32;;;;;;;2.65;1.42;;;15.60;99.90;;;;;;4954514;28;20055;-73
2022/03/21 10:17:06;;;;;;;5.53;1.65;;;15.90;99.90;;;;;;4952770;29;20039;-73
2022/03/21 10:19:58;;;;;;;5.65;1.70;;;15.50;99.90;;;;;;4954493;29;20061;-73
2022/03/21 10:22:36;;;;;;;4.22;2.00;;;15.50;99.90;;;;;;4950727;29;20053;-74
2022/03/21 10:25:08;;;;;;;5.45;1.73;;;15.20;99.90;;;;;;4936908;29;20042;-73
2022/03/21 10:27:33;;;;;;;;;;;15.70;99.90;;;;;;4954231;29;20114;-73
2022/03/21 10:30:03;;;;;;;3.80;1.25;;;15.70;99.90;;;;;;4945286;29;19915;-73
2022/03/21 10:32:51;;;;;;;6.03;1.33;;;15.30;99.90;;;;;;4945866;29;20135;-73
2022/03/21 10:35:22;;;;;;;2.67;1.35;;;15.40;99.90;;;;;;4951868;29;20028;-74
2022/03/21 10:37:52;;;;;;;4.43;1.25;;;15.20;99.90;;;;;;4953130;29;20031;-73
2022/03/21 10:40:54;;;;;;;7.45;1.83;;;15.30;99.90;;;;;;4956167;29;20026;-73
2022/03/21 10:43:20;;;;;;;3.58;1.27;;;15.30;99.90;;;;;;4889404;29;20044;-73
2022/03/21 10:45:52;;;;;;;8.60;1.77;;;15.20;99.90;;;;;;4894827;29;20049;-73
2022/03/21 10:48:24;;;;;;;6.55;2.08;;;15.40;99.90;;;;;;4889761;29;20048;-73
2022/03/21 10:50:52;;;;;;;3.92;1.75;;;15.50;99.90;;;;;;4893406;29;20449;-73
2022/03/21 10:53:24;;;;;;;7.57;2.13;;;15.40;99.90;;;;;;4889866;29;20528;-73
2022/03/21 10:56:02;;;;;;;4.47;1.70;;;15.60;99.90;;;;;;4894529;29;20097;-74
2022/03/21 10:58:47;;;;;;;7.18;1.88;;;15.60;99.90;;;;;;4883327;29;20531;-74
2022/03/21 11:01:23;;;;;;;6.50;2.15;;;15.60;99.90;;;;;;4894415;29;20103;-73
2022/03/21 11:03:51;;;;;;;4.18;2.10;;;15.40;99.90;;;;;;4893144;29;20032;-74
2022/03/21 11:06:18;;;;;;;6.05;2.30;;;15.60;99.90;;;;;;4890029;29;20115;-73
2022/03/21 11:08:47;;;;;;;7.78;2.50;;;15.40;99.90;;;;;;4893818;29;20484;-73
2022/03/21 11:11:13;;;;;;;3.45;2.10;;;15.20;99.90;;;;;;4895723;29;20065;-73
2022/03/21 11:13:39;;;;;;;10.77;2.65;;;15.50;99.90;;;;;;4893031;29;20053;-73
2022/03/21 11:16:06;;;;;;;13.23;2.90;;;15.90;99.90;;;;;;4894652;29;20036;-73
2022/03/21 11:18:32;;;;;;;6.88;2.25;;;15.80;99.90;;;;;;4940296;29;20031;-73
2022/03/21 11:20:59;;;;;;;6.78;2.80;;;15.40;99.90;;;;;;4947334;29;20046;-73
2022/03/21 11:23:27;;;;;;;6.13;2.25;;;15.30;99.90;;;;;;4953997;29;20383;-73
2022/03/21 11:26:00;;;;;;;8.32;3.10;;;15.50;99.90;;;;;;4947809;29;20043;-73
2022/03/21 11:28:46;;;;;;;10.95;2.60;;;15.70;99.90;;;;;;4953568;29;20039;-73
2022/03/21 11:31:37;;;;;;;7.15;2.40;;;15.50;99.70;;;;;;4945750;29;20186;-76
2022/03/21 11:34:22;;;;;;;4.28;2.28;;;15.40;99.50;;;;;;4952441;29;20035;-75
2022/03/21 11:37:22;;;;;;;6.47;2.35;;;15.40;99.90;;;;;;4930724;29;20391;-73
2022/03/21 11:39:48;;;;;;;8.05;2.50;;;15.30;99.90;;;;;;4945499;29;20096;-73
2022/03/21 11:42:23;;;;;;;5.75;2.17;;;15.40;99.80;;;;;;4941122;29;20483;-73
2022/03/21 11:45:40;;;;;;;9.05;3.33;;;15.00;99.90;;;;;;4953098;29;20509;-73
2022/03/21 11:48:18;;;;;;;8.93;2.40;;;14.80;99.90;;;;;;4877145;29;20121;-74
2022/03/21 11:50:49;;;;;;;6.53;2.47;;;15.10;99.60;;;;;;4892395;29;20044;-73
2022/03/21 11:53:16;;;;;;;7.43;2.77;;;15.40;99.80;;;;;;4887599;29;20153;-74
2022/03/21 11:55:46;;;;;;;6.38;2.35;;;15.10;99.90;;;;;;4881641;29;20035;-73
2022/03/21 11:58:39;;;;;;;8.43;2.55;;;14.80;99.80;;;;;;4883209;29;20065;-73
2022/03/21 12:01:14;;;;;;;9.38;3.17;;;15.00;99.50;;;;;;4886409;29;20041;-73
2022/03/21 12:03:42;;;;;;;9.00;2.83;;;14.90;99.60;;;;;;4887696;29;20104;-73
2022/03/21 12:06:20;;;;;;;13.52;3.20;;;15.00;99.80;;;;;;4876179;29;20032;-73
2022/03/21 12:08:48;;;;;;;8.95;2.47;;;15.00;99.30;;;;;;4892141;29;20060;-73
2022/03/21 12:11:38;;;;;;;12.68;3.63;;;15.00;98.90;;;;;;4898007;29;20065;-73
2022/03/21 12:14:36;;;;;;;11.15;2.88;;;15.00;99.10;;;;;;4912697;29;20483;-73
2022/03/21 12:17:01;;;;;;;11.20;3.40;;;15.20;98.20;;;;;;4926869;29;20035;-74
2022/03/21 12:22:29;;;;;;;12.05;2.70;;;14.80;98.40;;;;;;4927504;29;20027;-73
2022/03/21 12:24:59;;;;;;;9.15;2.95;;;14.90;98.60;;;;;;4957571;28;20372;-73
2022/03/21 12:27:35;;;;;;;14.18;3.38;;;15.00;98.50;;;;;;4975530;28;20540;-73
2022/03/21 12:30:19;;;;;;;9.02;2.40;;;14.80;98.30;;;;;;4970292;28;20030;-73
2022/03/21 12:32:48;;;;;;;7.90;2.55;;;14.90;98.20;;;;;;4971515;28;20030;-73
2022/03/21 12:35:32;;;;;;;13.20;3.05;;;15.20;98.10;;;;;;4955450;28;20032;-73
2022/03/21 12:38:02;;;;;;;8.80;3.70;;;15.00;97.10;;;;;;4957928;29;20031;-73
2022/03/21 12:40:28;;;;;;;15.55;3.60;;;14.80;97.30;;;;;;4962537;28;20466;-73
2022/03/21 12:42:57;;;;;;;9.60;3.17;;;14.80;97.00;;;;;;4976663;28;20037;-74
2022/03/21 12:45:23;;;;;;;8.15;3.08;;;14.80;97.10;;;;;;4973653;28;20057;-73
2022/03/21 12:47:49;;;;;;;15.30;3.05;;;14.70;95.80;;;;;;4976769;28;20096;-73
2022/03/21 12:50:20;;;;;;;13.20;3.47;;;14.90;96.00;;;;;;4974970;28;20031;-73
2022/03/21 12:52:52;;;;;;;13.20;3.20;;;14.90;95.60;;;;;;4968675;28;20073;-73
2022/03/21 12:55:18;;;;;;;12.50;3.63;;;14.80;95.10;;;;;;4967091;28;20094;-73
2022/03/21 12:58:08;;;;;;;15.43;4.53;;;14.80;95.10;;;;;;4968529;28;20107;-73
2022/03/21 13:00:39;;;;;;;11.13;3.33;;;14.70;95.30;;;;;;4967754;28;20446;-73
2022/03/21 13:03:09;;;;;;;11.83;3.37;;;14.60;95.50;;;;;;4974169;28;20486;-73
2022/03/21 13:11:35;;;;;;;11.25;2.88;;;14.60;94.00;;;;;;4959967;28;20536;-73
2022/03/21 13:14:15;;;;;;;7.25;2.53;;;14.60;93.40;;;;;;4974434;28;20043;-73
2022/03/21 13:16:57;;;;;;;8.07;2.60;;;14.50;92.80;;;;;;4976106;28;20033;-73
2022/03/21 13:19:26;;;;;;;7.60;2.20;;;14.40;92.20;;;;;;4974285;28;20106;-74
2022/03/21 13:21:55;;;;;;;6.47;2.90;;;14.20;92.10;;;;;;4976382;28;20027;-73
2022/03/21 13:24:39;;;;;;;9.13;3.10;;;14.30;92.20;;;;;;4973282;28;20031;-73
2022/03/21 13:27:06;;;;;;;19.83;2.88;;;14.30;91.50;;;;;;4954981;28;20065;-73
2022/03/21 13:29:32;;;;;;;7.78;3.35;;;14.10;91.40;;;;;;4972944;28;20078;-73
2022/03/21 13:31:58;;;;;;;9.15;2.83;;;14.20;91.30;;;;;;4974854;28;20089;-73
2022/03/21 13:34:25;;;;;;;9.75;3.45;;;14.30;91.10;;;;;;4972836;28;20081;-73
2022/03/21 13:36:51;;;;;;;9.90;2.88;;;14.20;91.40;;;;;;4973675;28;20026;-73
2022/03/21 13:39:26;;;;;;;9.40;3.28;;;14.30;91.10;;;;;;4974068;28;20023;-73
2022/03/21 13:42:04;;;;;;;10.10;3.28;;;14.20;90.50;;;;;;4974461;28;20474;-73
2022/03/21 13:44:39;;;;;;;7.50;3.47;;;14.20;90.80;;;;;;4969764;28;20054;-73
2022/03/21 13:47:14;;;;;;;10.90;3.30;;;14.20;90.80;;;;;;4971101;28;20486;-73
2022/03/21 13:49:46;;;;;;;10.48;3.45;;;14.40;91.20;;;;;;4959547;28;20034;-74
2022/03/21 13:52:14;;;;;;;13.75;3.60;;;14.30;90.60;;;;;;4972012;28;20027;-73
2022/03/21 13:54:53;;;;;;;13.10;3.60;;;14.20;91.30;;;;;;4973364;28;20023;-73
2022/03/21 14:19:15;;;;;;;11.93;3.55;;;14.50;92.30;;;;;;6127185;23;20083;31
2022/03/21 14:21:41;;;;;;;10.80;3.05;;;14.50;91.70;;;;;;4934438;29;20048;-75
2022/03/21 14:24:07;;;;;;;8.90;3.55;;;14.30;91.80;;;;;;4949319;29;20528;-75
2022/03/21 14:26:38;;;;;;;12.50;3.75;;;14.40;91.90;;;;;;4938351;29;20043;-75
2022/03/21 14:29:06;;;;;;;15.43;4.70;;;14.20;91.80;;;;;;4946712;29;20114;-75
2022/03/21 14:31:32;;;;;;;12.57;2.90;;;14.10;92.10;;;;;;4933996;29;20039;-75
2022/03/21 14:33:58;;;;;;;10.90;3.60;;;14.30;91.40;;;;;;4953838;29;20031;-75
2022/03/21 14:36:23;;;;;;;10.80;3.83;;;14.30;90.30;;;;;;4947126;29;20509;-75
2022/03/21 14:38:49;;;;;;;14.20;4.20;;;14.30;90.70;;;;;;4948550;29;20446;-75
2022/03/21 14:41:16;;;;;;;15.40;4.65;;;14.60;91.10;;;;;;4936413;29;20041;-75
2022/03/21 14:43:44;;;;;;;9.98;3.75;;;14.50;90.90;;;;;;4935767;29;20024;-76
2022/03/21 14:46:10;;;;;;;7.65;3.42;;;14.50;89.60;;;;;;4932719;29;20119;-75
2022/03/21 14:48:36;;;;;;;7.07;2.97;;;14.50;88.90;;;;;;4935173;29;20103;-75
2022/03/21 14:51:05;;;;;;;11.30;3.75;;;14.40;88.00;;;;;;4932090;29;20050;-76
2022/03/21 14:53:31;;;;;;;11.98;3.67;;;14.30;87.30;;;;;;4927964;29;20020;-75
2022/03/21 14:56:00;;;;;;;7.60;2.92;;;14.50;87.80;;;;;;4952170;29;20033;-75
2022/03/21 14:58:27;;;;;;;11.63;3.22;;;14.30;89.30;;;;;;4933862;29;20087;-75
2022/03/21 15:00:53;;;;;;;10.93;4.15;;;14.40;90.70;;;;;;4935840;29;20026;-75
2022/03/21 15:03:19;;;;;;;12.57;4.18;;;14.50;91.70;;;;;;4917048;29;20468;-75
2022/03/21 15:05:45;;;;;;;9.63;3.45;;;14.40;91.70;;;;;;4937250;29;20035;-76
2022/03/21 15:08:11;;;;;;;15.88;4.18;;;14.10;92.00;;;;;;4933410;29;20103;-75
2022/03/21 15:10:39;;;;;;;10.98;3.97;;;13.90;92.20;;;;;;4942222;29;20023;-75
2022/03/21 15:13:07;;;;;;;13.88;4.32;;;13.80;93.00;;;;;;4938624;29;20023;-75
2022/03/21 15:15:33;;;;;;;12.77;4.45;;;13.90;93.50;;;;;;4948683;29;20537;-75
2022/03/21 15:17:59;;;;;;;15.77;4.55;;;13.80;93.50;;;;;;4935630;29;20499;-75
2022/03/21 15:20:27;;;;;;;10.88;4.85;;;13.80;93.20;;;;;;4931198;29;20056;-75